createdAt,value
2019-03-18T00:00:32.293Z,7.15
2019-03-18T00:03:06.736Z,7.12
2019-03-18T00:05:41.262Z,7.23
2019-03-18T00:08:15.708Z,7.29
2019-03-18T00:10:50.279Z,7.22
2019-03-18T00:13:24.689Z,7.30
2019-03-18T00:15:58.963Z,7.03
2019-03-18T00:18:33.641Z,6.98
2019-03-18T00:21:08.084Z,6.98
2019-03-18T00:23:42.331Z,6.92
2019-03-18T00:26:16.696Z,6.92
2019-03-18T00:28:51.147Z,6.92
2019-03-18T00:31:25.711Z,6.86
2019-03-18T00:33:58.691Z,6.72
2019-03-18T00:36:32.901Z,6.67
2019-03-18T00:39:08.290Z,6.68
2019-03-18T00:41:42.322Z,6.57
2019-03-18T00:44:16.722Z,6.57
2019-03-18T00:46:50.973Z,6.65
2019-03-18T00:49:26.143Z,6.65
2019-03-18T00:52:40.657Z,6.67
2019-03-18T00:55:15.344Z,6.55
2019-03-18T00:57:49.899Z,6.55
2019-03-18T01:00:22.870Z,6.59
2019-03-18T01:02:56.960Z,6.59
2019-03-18T01:05:31.278Z,6.62
2019-03-18T01:08:05.648Z,6.49
2019-03-18T01:10:41.073Z,6.49
2019-03-18T01:13:15.666Z,6.33
2019-03-18T01:15:49.948Z,6.33
2019-03-18T01:18:24.262Z,6.37
2019-03-18T01:20:58.735Z,6.35
2019-03-18T01:23:32.969Z,6.27
2019-03-18T01:26:05.805Z,6.35
2019-03-18T01:28:40.087Z,6.23
2019-03-18T01:31:14.341Z,6.33
2019-03-18T01:33:48.766Z,6.33
2019-03-18T01:36:21.696Z,6.26
2019-03-18T01:38:55.950Z,6.33
2019-03-18T01:41:28.851Z,6.23
2019-03-18T01:44:03.133Z,6.22
2019-03-18T01:46:37.509Z,6.12
2019-03-18T01:49:11.880Z,6.12
2019-03-18T01:51:44.867Z,6.12
2019-03-18T01:54:19.284Z,6.17
2019-03-18T01:56:53.698Z,6.32
2019-03-18T01:59:28.053Z,6.39
2019-03-18T02:02:02.628Z,6.30
2019-03-18T02:04:36.938Z,6.30
2019-03-18T02:07:11.284Z,6.13
2019-03-18T02:09:45.756Z,6.10
2019-03-18T02:12:19.859Z,5.95
2019-03-18T02:14:54.130Z,5.89
2019-03-18T02:17:28.716Z,5.97
2019-03-18T02:20:03.540Z,5.87
2019-03-18T02:22:37.935Z,5.80
2019-03-18T02:25:11.280Z,5.75
2019-03-18T02:27:45.304Z,5.82
2019-03-18T02:30:20.146Z,5.82
2019-03-18T02:32:54.672Z,5.80
2019-03-18T02:35:28.955Z,5.93
2019-03-18T02:38:03.331Z,5.85
2019-03-18T02:40:38.713Z,5.88
2019-03-18T02:43:13.143Z,5.83
2019-03-18T02:45:47.590Z,5.82
2019-03-18T02:48:22.068Z,5.82
2019-03-18T02:50:56.703Z,5.65
2019-03-18T02:53:31.193Z,5.65
2019-03-18T02:56:05.645Z,5.61
2019-03-18T02:58:39.950Z,5.49
2019-03-18T03:01:12.690Z,5.45
2019-03-18T03:05:34.704Z,5.24
2019-03-18T03:08:09.267Z,5.24
2019-03-18T03:10:43.749Z,5.28
2019-03-18T03:13:18.281Z,5.34
2019-03-18T03:15:52.675Z,5.21
2019-03-18T03:18:27.086Z,5.13
2019-03-18T03:21:01.627Z,5.18
2019-03-18T03:23:35.948Z,5.06
2019-03-18T03:26:10.284Z,5.08
2019-03-18T03:28:44.712Z,5.00
2019-03-18T03:31:19.958Z,4.92
2019-03-18T03:33:53.976Z,4.87
2019-03-18T03:36:28.300Z,4.82
2019-03-18T03:39:02.707Z,4.85
2019-03-18T03:41:37.284Z,4.80
2019-03-18T03:44:11.707Z,4.89
2019-03-18T03:46:46.118Z,4.89
2019-03-18T03:49:20.681Z,4.87
2019-03-18T03:51:54.953Z,4.68
2019-03-18T03:54:27.874Z,4.69
2019-03-18T03:57:02.038Z,4.68
2019-03-18T04:01:01.349Z,4.50
2019-03-18T04:03:38.505Z,4.50
2019-03-18T04:06:12.111Z,4.49
2019-03-18T04:08:46.676Z,4.59
2019-03-18T04:11:21.118Z,4.44
2019-03-18T04:13:55.586Z,4.32
2019-03-18T04:16:29.949Z,4.32
2019-03-18T04:19:02.693Z,4.28
2019-03-18T04:21:36.897Z,4.25
2019-03-18T04:24:11.122Z,4.18
2019-03-18T04:26:45.680Z,4.21
2019-03-18T04:29:22.620Z,4.10
2019-03-18T04:31:56.970Z,4.09
2019-03-18T04:34:31.315Z,4.15
2019-03-18T04:37:05.725Z,4.15
2019-03-18T04:39:40.116Z,4.19
2019-03-18T04:42:14.622Z,4.15
2019-03-18T04:44:48.947Z,4.16
2019-03-18T04:47:21.704Z,4.24
2019-03-18T04:49:56.797Z,4.32
2019-03-18T04:52:29.713Z,4.30
2019-03-18T04:55:03.942Z,4.37
2019-03-18T04:57:36.673Z,4.32
2019-03-18T05:00:11.660Z,4.24
2019-03-18T05:02:44.695Z,4.11
2019-03-18T05:05:18.946Z,4.19
2019-03-18T05:07:52.004Z,4.07
2019-03-18T05:10:24.798Z,4.06
2019-03-18T05:12:59.275Z,4.06
2019-03-18T05:15:34.888Z,4.01
2019-03-18T05:18:07.701Z,4.01
2019-03-18T05:20:42.256Z,4.08
2019-03-18T05:23:16.644Z,4.07
2019-03-18T05:25:50.946Z,4.04
2019-03-18T05:28:23.874Z,3.96
2019-03-18T05:30:58.195Z,3.98
2019-03-18T05:33:32.647Z,4.01
2019-03-18T05:36:06.944Z,4.17
2019-03-18T05:38:39.714Z,4.17
2019-03-18T05:41:13.947Z,4.12
2019-03-18T05:43:48.698Z,4.10
2019-03-18T05:46:23.273Z,4.10
2019-03-18T05:48:57.732Z,4.15
2019-03-18T05:51:32.074Z,4.29
2019-03-18T05:54:06.708Z,4.29
2019-03-18T05:56:41.066Z,4.36
2019-03-18T05:59:15.314Z,4.57
2019-03-18T06:01:49.746Z,4.57
2019-03-18T06:04:24.134Z,4.41
2019-03-18T06:06:58.661Z,4.44
2019-03-18T06:09:33.292Z,4.42
2019-03-18T06:12:07.713Z,4.51
2019-03-18T06:14:41.944Z,4.51
2019-03-18T06:17:15.302Z,4.54
2019-03-18T06:19:49.691Z,4.56
2019-03-18T06:22:24.155Z,4.66
2019-03-18T06:24:58.620Z,4.73
2019-03-18T06:27:32.946Z,4.75
2019-03-18T06:30:06.283Z,4.75
2019-03-18T06:32:40.642Z,4.70
2019-03-18T06:35:15.102Z,4.70
2019-03-18T06:37:49.687Z,4.71
2019-03-18T06:40:23.945Z,4.90
2019-03-18T06:42:56.864Z,5.59
2019-03-18T06:45:31.130Z,5.59
2019-03-18T06:48:05.767Z,5.70
2019-03-18T06:50:40.132Z,5.85
2019-03-18T06:53:14.676Z,6.25
2019-03-18T06:55:49.119Z,6.25
2019-03-18T06:58:23.751Z,6.85
2019-03-18T07:00:58.081Z,6.85
2019-03-18T07:03:32.417Z,7.25
2019-03-18T07:06:06.781Z,7.36
2019-03-18T07:08:41.124Z,7.36
2019-03-18T07:11:15.678Z,7.55
2019-03-18T07:13:50.105Z,7.71
2019-03-18T07:16:24.316Z,7.98
2019-03-18T07:18:58.676Z,7.98
2019-03-18T07:21:32.944Z,8.29
2019-03-18T07:24:07.125Z,8.17
2019-03-18T07:26:41.663Z,8.27
2019-03-18T07:29:16.277Z,8.36
2019-03-18T07:31:50.671Z,8.66
2019-03-18T07:34:23.793Z,8.75
2019-03-18T07:36:57.946Z,9.03
2019-03-18T07:39:32.282Z,8.88
2019-03-18T07:42:06.664Z,9.25
2019-03-18T07:44:41.106Z,8.89
2019-03-18T07:47:15.660Z,8.64
2019-03-18T07:49:50.100Z,9.41
2019-03-18T07:56:41.715Z,10.71
2019-03-18T07:59:14.865Z,11.54
2019-03-18T08:01:49.130Z,12.54
2019-03-18T08:04:23.643Z,13.91
2019-03-18T08:06:57.944Z,14.10
2019-03-18T08:09:32.606Z,13.35
2019-03-18T08:12:06.936Z,14.46
2019-03-18T08:14:41.618Z,14.47
2019-03-18T08:17:16.076Z,14.69
2019-03-18T08:19:50.667Z,12.74
2019-03-18T08:22:26.122Z,12.74
2019-03-18T08:25:00.605Z,11.22
2019-03-18T08:27:34.942Z,11.22
2019-03-18T08:30:09.711Z,10.52
2019-03-18T08:32:44.096Z,9.62
2019-03-18T08:35:18.643Z,10.42
2019-03-18T08:37:54.853Z,10.42
2019-03-18T08:40:29.278Z,9.11
2019-03-18T08:43:03.692Z,9.11
2019-03-18T08:45:38.069Z,8.77
2019-03-18T08:48:12.635Z,8.92
2019-03-18T08:50:47.058Z,8.90
2019-03-18T08:53:21.721Z,8.52
2019-03-18T08:55:56.305Z,8.54
2019-03-18T08:58:30.782Z,8.62
2019-03-18T09:01:03.779Z,8.35
2019-03-18T09:03:37.918Z,8.08
2019-03-18T09:06:11.787Z,8.19
2019-03-18T09:08:45.943Z,8.01
2019-03-18T09:11:18.854Z,8.04
2019-03-18T09:13:53.114Z,8.06
2019-03-18T09:16:27.617Z,8.23
2019-03-18T09:19:08.447Z,8.37
2019-03-18T09:21:37.929Z,8.37
2019-03-18T09:24:12.082Z,8.35
2019-03-18T09:26:46.609Z,8.22
2019-03-18T09:29:20.943Z,8.22
2019-03-18T09:31:55.115Z,8.08
2019-03-18T09:34:30.340Z,7.86
2019-03-18T09:37:04.689Z,7.82
2019-03-18T09:39:38.937Z,7.92
2019-03-18T09:42:13.278Z,8.20
2019-03-18T09:44:47.660Z,8.22
2019-03-18T09:47:21.935Z,8.69
2019-03-18T09:49:56.093Z,9.15
2019-03-18T09:52:30.367Z,8.69
2019-03-18T09:55:04.872Z,8.69
2019-03-18T09:57:37.770Z,9.42
2019-03-18T10:00:12.519Z,10.45
2019-03-18T10:02:46.925Z,11.20
2019-03-18T10:05:21.283Z,12.33
2019-03-18T10:07:55.889Z,11.24
2019-03-18T10:10:28.799Z,11.24
2019-03-18T10:13:02.954Z,10.40
2019-03-18T10:15:35.862Z,10.34
2019-03-18T10:18:10.245Z,9.95
2019-03-18T10:20:44.766Z,9.58
2019-03-18T10:23:19.103Z,9.41
2019-03-18T10:25:53.343Z,9.01
2019-03-18T10:28:27.697Z,9.01
2019-03-18T10:31:02.116Z,9.54
2019-03-18T10:33:36.641Z,10.06
2019-03-18T10:36:11.091Z,10.06
2019-03-18T10:38:45.673Z,10.32
2019-03-18T10:41:20.093Z,10.32
2019-03-18T10:43:54.683Z,9.84
2019-03-18T10:46:29.111Z,9.84
2019-03-18T10:49:03.690Z,10.49
2019-03-18T10:51:36.813Z,10.49
2019-03-18T10:54:10.985Z,10.17
2019-03-18T10:56:45.651Z,9.56
2019-03-18T10:59:20.108Z,9.52
2019-03-18T11:01:54.324Z,9.07
2019-03-18T11:04:28.678Z,9.07
2019-03-18T11:07:03.118Z,9.48
2019-03-18T11:09:37.684Z,10.00
2019-03-18T11:12:12.185Z,10.79
2019-03-18T11:14:46.720Z,10.90
2019-03-18T11:17:21.086Z,11.03
2019-03-18T11:19:58.696Z,12.94
2019-03-18T11:22:31.339Z,12.33
2019-03-18T11:25:06.262Z,12.33
2019-03-18T11:27:40.721Z,11.18
2019-03-18T11:30:15.791Z,10.06
2019-03-18T11:32:50.109Z,9.75
2019-03-18T11:35:24.638Z,9.94
2019-03-18T11:37:59.105Z,9.94
2019-03-18T11:40:33.301Z,9.13
2019-03-18T11:43:07.697Z,9.13
2019-03-18T11:45:42.926Z,9.15
2019-03-18T11:48:17.275Z,9.01
2019-03-18T11:50:51.660Z,8.87
2019-03-18T11:53:25.956Z,8.91
2019-03-18T11:55:58.880Z,8.87
2019-03-18T11:58:33.136Z,8.59
2019-03-18T12:01:07.691Z,8.66
2019-03-18T12:03:41.946Z,8.66
2019-03-18T12:06:16.263Z,8.71
2019-03-18T12:08:50.672Z,8.99
2019-03-18T12:11:25.101Z,9.38
2019-03-18T12:14:00.683Z,9.38
2019-03-18T12:16:35.246Z,9.95
2019-03-18T12:19:09.652Z,12.71
2019-03-18T12:21:43.947Z,14.80
2019-03-18T12:24:18.264Z,16.31
2019-03-18T12:26:52.699Z,17.55
2019-03-18T12:29:27.116Z,17.49
2019-03-18T12:32:01.289Z,18.33
2019-03-18T12:34:35.707Z,19.06
2019-03-18T12:37:10.282Z,19.06
2019-03-18T12:39:44.679Z,19.82
2019-03-18T12:42:18.959Z,20.58
2019-03-18T12:44:53.106Z,20.58
2019-03-18T12:47:27.668Z,15.12
2019-03-18T12:50:02.109Z,14.15
2019-03-18T12:52:36.722Z,14.15
2019-03-18T12:55:09.645Z,13.14
2019-03-18T12:57:43.941Z,12.15
2019-03-18T13:00:23.281Z,11.98
2019-03-18T13:02:57.735Z,11.69
2019-03-18T13:05:31.939Z,11.56
2019-03-18T13:08:04.768Z,12.14
2019-03-18T13:10:38.949Z,12.41
2019-03-18T13:13:13.137Z,12.41
2019-03-18T13:15:47.692Z,13.19
2019-03-18T13:18:22.075Z,16.23
2019-03-18T13:21:07.262Z,15.90
2019-03-18T13:23:32.795Z,15.90
2019-03-18T13:26:05.788Z,17.00
2019-03-18T13:28:39.948Z,18.65
2019-03-18T13:31:14.312Z,19.21
2019-03-18T13:33:48.754Z,19.21
2019-03-18T13:36:25.339Z,16.01
2019-03-18T13:38:59.121Z,14.87
2019-03-18T13:41:33.311Z,12.79
2019-03-18T13:44:07.924Z,12.79
2019-03-18T13:46:42.256Z,12.33
2019-03-18T13:49:16.710Z,11.46
2019-03-18T13:51:51.066Z,10.58
2019-03-18T13:54:25.328Z,8.80
2019-03-18T13:56:59.746Z,8.80
2019-03-18T13:59:34.101Z,8.27
2019-03-18T14:02:08.696Z,7.53
2019-03-18T14:04:43.283Z,7.53
2019-03-18T14:07:17.701Z,7.31
2019-03-18T14:09:52.020Z,7.35
2019-03-18T14:12:26.356Z,14.35
2019-03-18T14:15:00.886Z,14.35
2019-03-18T14:17:35.129Z,12.15
2019-03-18T14:20:10.681Z,10.24
2019-03-18T14:22:45.250Z,10.47
2019-03-18T14:25:19.777Z,14.13
2019-03-18T14:27:52.689Z,15.72
2019-03-18T14:30:26.945Z,17.27
2019-03-18T14:33:01.281Z,18.51
2019-03-18T14:35:35.729Z,19.15
2019-03-18T14:38:10.089Z,20.47
2019-03-18T14:40:44.681Z,21.12
2019-03-18T14:43:19.271Z,21.36
2019-03-18T14:45:53.682Z,21.84
2019-03-18T14:48:27.942Z,22.28
2019-03-18T14:51:02.332Z,22.28
2019-03-18T14:53:36.677Z,22.71
2019-03-18T14:56:10.946Z,22.83
2019-03-18T14:58:45.109Z,21.78
2019-03-18T15:01:19.694Z,21.70
2019-03-18T15:03:52.657Z,20.21
2019-03-18T15:06:26.949Z,20.21
2019-03-18T15:09:01.320Z,17.31
2019-03-18T15:11:36.943Z,17.31
2019-03-18T15:14:11.128Z,17.03
2019-03-18T15:16:45.632Z,18.81
2019-03-18T15:19:19.941Z,18.81
2019-03-18T15:21:58.697Z,19.11
2019-03-18T15:24:30.628Z,19.02
2019-03-18T15:27:05.108Z,19.02
2019-03-18T15:29:40.706Z,20.32
2019-03-18T15:33:47.314Z,19.84
2019-03-18T15:36:21.948Z,19.99
2019-03-18T15:38:55.016Z,20.07
2019-03-18T15:41:28.044Z,19.45
2019-03-18T15:44:02.285Z,19.22
2019-03-18T15:46:36.887Z,18.62
2019-03-18T15:49:09.869Z,18.84
2019-03-18T15:51:44.256Z,19.31
2019-03-18T15:54:18.714Z,18.82
2019-03-18T15:56:53.102Z,17.86
2019-03-18T15:59:27.632Z,14.74
2019-03-18T16:02:03.099Z,14.74
2019-03-18T16:04:37.684Z,12.57
2019-03-18T16:07:12.107Z,12.57
2019-03-18T16:09:46.723Z,11.30
2019-03-18T16:12:21.205Z,10.53
2019-03-18T16:14:55.737Z,10.53
2019-03-18T16:17:28.814Z,9.96
2019-03-18T16:20:05.274Z,9.59
2019-03-18T16:22:40.101Z,8.81
2019-03-18T16:25:15.286Z,7.54
2019-03-18T16:27:49.946Z,6.77
2019-03-18T16:30:24.294Z,6.73
2019-03-18T16:32:59.163Z,6.70
2019-03-18T16:35:33.878Z,7.06
2019-03-18T16:38:07.076Z,7.06
2019-03-18T16:40:41.278Z,6.89
2019-03-18T16:43:16.281Z,6.85
2019-03-18T16:45:50.776Z,6.64
2019-03-18T16:48:25.282Z,6.47
2019-03-18T16:50:59.921Z,6.47
2019-03-18T16:53:33.246Z,6.27
2019-03-18T16:56:07.701Z,6.14
2019-03-18T16:58:40.757Z,6.14
2019-03-18T17:01:14.949Z,6.14
2019-03-18T17:03:49.275Z,6.24
2019-03-18T17:06:23.746Z,6.14
2019-03-18T17:08:57.119Z,6.04
2019-03-18T17:11:31.680Z,6.10
2019-03-18T17:14:06.359Z,6.07
2019-03-18T17:16:41.272Z,5.95
2019-03-18T17:19:15.712Z,5.87
2019-03-18T17:21:50.267Z,5.87
2019-03-18T17:24:24.285Z,5.84
2019-03-18T17:26:58.993Z,5.86
2019-03-18T17:29:33.760Z,5.98
2019-03-18T17:32:06.668Z,6.21
2019-03-18T17:34:41.104Z,6.21
2019-03-18T17:37:15.651Z,6.02
2019-03-18T17:39:50.278Z,6.02
2019-03-18T17:42:24.685Z,6.01
2019-03-18T17:44:59.092Z,6.04
2019-03-18T17:47:33.623Z,5.97
2019-03-18T17:50:09.308Z,5.97
2019-03-18T17:52:43.853Z,5.80
2019-03-18T17:55:17.141Z,5.80
2019-03-18T17:57:51.640Z,5.85
2019-03-18T18:00:32.572Z,5.85
2019-03-18T18:03:05.845Z,5.99
2019-03-18T18:05:40.329Z,5.84
2019-03-18T18:08:14.953Z,5.83
2019-03-18T18:10:51.281Z,5.89
2019-03-18T18:13:25.882Z,5.93
2019-03-18T18:15:59.079Z,6.01
2019-03-18T18:18:31.871Z,5.95
2019-03-18T18:21:06.270Z,5.84
2019-03-18T18:23:40.941Z,5.81
2019-03-18T18:26:15.315Z,5.68
2019-03-18T18:28:49.877Z,5.65
2019-03-18T18:31:22.856Z,5.74
2019-03-18T18:33:57.268Z,5.81
2019-03-18T18:36:31.691Z,5.69
2019-03-18T18:39:07.665Z,5.69
2019-03-18T18:41:42.267Z,5.67
2019-03-18T18:44:16.736Z,5.65
2019-03-18T18:46:51.247Z,5.60
2019-03-18T18:49:25.718Z,5.55
2019-03-18T18:52:00.122Z,5.45
2019-03-18T18:54:34.942Z,5.47
2019-03-18T18:57:09.268Z,5.44
2019-03-18T18:59:43.703Z,5.50
2019-03-18T19:02:18.280Z,5.48
2019-03-18T19:04:52.767Z,5.46
2019-03-18T19:07:27.342Z,5.41
2019-03-18T19:10:02.112Z,5.42
2019-03-18T19:12:37.838Z,5.39
2019-03-18T19:15:14.047Z,5.42
2019-03-18T19:17:48.345Z,5.42
2019-03-18T19:20:22.848Z,5.43
2019-03-18T19:22:57.280Z,5.40
2019-03-18T19:25:31.647Z,5.57
2019-03-18T19:28:06.323Z,5.67
2019-03-18T19:30:41.941Z,5.67
2019-03-18T19:33:16.356Z,5.68
2019-03-18T19:35:51.163Z,5.63
2019-03-18T19:38:25.752Z,5.61
2019-03-18T19:40:58.880Z,5.70
2019-03-18T19:43:33.281Z,5.84
2019-03-18T19:46:08.280Z,6.02
2019-03-18T19:48:42.744Z,6.14
2019-03-18T19:51:17.135Z,6.14
2019-03-18T19:53:51.635Z,5.95
2019-03-18T19:56:26.285Z,5.77
2019-03-18T19:59:00.865Z,5.77
2019-03-18T20:01:35.327Z,5.80
2019-03-18T20:04:09.870Z,5.81
2019-03-18T20:06:44.281Z,5.91
2019-03-18T20:09:19.322Z,5.88
2019-03-18T20:11:53.954Z,5.90
2019-03-18T20:14:28.273Z,5.93
2019-03-18T20:17:03.267Z,5.89
2019-03-18T20:19:37.938Z,5.90
2019-03-18T20:22:10.813Z,5.90
2019-03-18T20:24:46.277Z,6.00
2019-03-18T20:27:20.680Z,6.00
2019-03-18T20:29:55.169Z,5.98
2019-03-18T20:32:29.686Z,5.96
2019-03-18T20:35:04.277Z,5.96
2019-03-18T20:37:38.940Z,6.00
2019-03-18T20:40:14.704Z,6.05
2019-03-18T20:42:50.286Z,6.06
2019-03-18T20:45:26.108Z,6.08
2019-03-18T20:48:01.300Z,6.07
2019-03-18T20:50:35.965Z,6.05
2019-03-18T20:53:10.399Z,5.90
2019-03-18T20:55:44.942Z,5.85
2019-03-18T20:58:19.282Z,5.80
2019-03-18T21:00:53.939Z,5.81
2019-03-18T21:03:28.269Z,5.80
2019-03-18T21:06:02.777Z,5.67
2019-03-18T21:08:35.702Z,5.65
2019-03-18T21:11:10.146Z,5.72
2019-03-18T21:13:44.703Z,5.72
2019-03-18T21:16:19.287Z,5.72
2019-03-18T21:18:53.718Z,5.71
2019-03-18T21:21:29.111Z,5.85
2019-03-18T21:24:03.707Z,5.84
2019-03-18T21:26:37.857Z,5.76
2019-03-18T21:29:27.720Z,5.77
2019-03-18T21:32:02.290Z,5.77
2019-03-18T21:34:36.934Z,5.68
2019-03-18T21:37:11.867Z,5.49
2019-03-18T21:39:46.638Z,5.45
2019-03-18T21:42:20.948Z,5.45
2019-03-18T21:44:56.473Z,5.35
2019-03-18T21:47:30.942Z,5.27
2019-03-18T21:50:05.573Z,5.24
2019-03-18T21:52:39.965Z,5.24
2019-03-18T21:55:14.747Z,5.22
2019-03-18T21:57:47.885Z,5.18
2019-03-18T22:00:22.285Z,5.23
2019-03-18T22:02:56.761Z,5.26
2019-03-18T22:05:31.269Z,5.23
2019-03-18T22:08:05.719Z,5.29
2019-03-18T22:10:40.202Z,5.28
2019-03-18T22:14:15.893Z,5.45
2019-03-18T22:16:49.286Z,5.43
2019-03-18T22:19:23.707Z,5.32
2019-03-18T22:21:59.152Z,5.32
2019-03-18T22:24:44.554Z,5.20
2019-03-18T22:27:10.111Z,5.20
2019-03-18T22:29:45.061Z,5.26
2019-03-18T22:32:19.307Z,5.36
2019-03-18T22:34:53.712Z,5.36
2019-03-18T22:37:28.370Z,5.30
2019-03-18T22:40:02.959Z,5.28
2019-03-18T22:42:37.649Z,5.35
2019-03-18T22:45:12.660Z,5.35
2019-03-18T22:47:47.131Z,5.33
2019-03-18T22:50:22.778Z,5.45
2019-03-18T22:52:57.289Z,5.50
2019-03-18T22:55:32.751Z,5.39
2019-03-18T22:58:07.288Z,5.33
2019-03-18T23:02:14.972Z,5.30
2019-03-18T23:04:50.291Z,5.24
2019-03-18T23:07:25.202Z,5.26
2019-03-18T23:09:59.801Z,5.24
2019-03-18T23:12:34.303Z,5.39
2019-03-18T23:15:09.950Z,5.57
2019-03-18T23:17:44.893Z,5.49
2019-03-18T23:20:19.295Z,5.49
2019-03-18T23:22:53.932Z,5.59
2019-03-18T23:25:28.648Z,5.63
2019-03-18T23:28:02.020Z,5.62
2019-03-18T23:30:37.696Z,5.42
2019-03-18T23:33:10.897Z,5.42
2019-03-18T23:35:44.295Z,5.30
2019-03-18T23:38:18.976Z,5.31
2019-03-18T23:40:53.745Z,5.33
2019-03-18T23:43:26.720Z,5.21
2019-03-18T23:46:01.206Z,5.21
2019-03-18T23:48:35.863Z,5.18
2019-03-18T23:51:10.708Z,5.27
2019-03-18T23:53:46.118Z,5.35
2019-03-18T23:56:20.742Z,5.21
2019-03-18T23:58:54.289Z,5.21
